sensor_id;sensor_type;location;lat;lon;timestamp;P1;durP1;ratioP1;P2;durP2;ratioP2
68921;SDS011;55959;51.244;5.724;2023-11-19T00:02:20;1.40;;;1.30;;
68921;SDS011;55959;51.244;5.724;2023-11-19T00:04:46;1.33;;;1.23;;
68921;SDS011;55959;51.244;5.724;2023-11-19T00:07:12;1.20;;;1.10;;
68921;SDS011;55959;51.244;5.724;2023-11-19T00:09:39;1.83;;;1.20;;
68921;SDS011;55959;51.244;5.724;2023-11-19T00:12:06;1.57;;;1.20;;
68921;SDS011;55959;51.244;5.724;2023-11-19T00:14:35;1.77;;;1.20;;
68921;SDS011;55959;51.244;5.724;2023-11-19T00:17:01;1.70;;;1.30;;
68921;SDS011;55959;51.244;5.724;2023-11-19T00:19:29;1.17;;;1.10;;
68921;SDS011;55959;51.244;5.724;2023-11-19T00:21:54;1.10;;;1.00;;
68921;SDS011;55959;51.244;5.724;2023-11-19T00:24:20;1.80;;;1.20;;
68921;SDS011;55959;51.244;5.724;2023-11-19T00:26:47;1.17;;;1.10;;
68921;SDS011;55959;51.244;5.724;2023-11-19T00:29:13;1.23;;;1.00;;
68921;SDS011;55959;51.244;5.724;2023-11-19T00:31:39;1.40;;;1.30;;
68921;SDS011;55959;51.244;5.724;2023-11-19T00:34:04;1.10;;;1.00;;
68921;SDS011;55959;51.244;5.724;2023-11-19T00:36:31;1.30;;;1.20;;
68921;SDS011;55959;51.244;5.724;2023-11-19T00:38:57;1.13;;;1.03;;
68921;SDS011;55959;51.244;5.724;2023-11-19T00:41:23;1.43;;;1.13;;
68921;SDS011;55959;51.244;5.724;2023-11-19T00:43:50;1.00;;;1.00;;
68921;SDS011;55959;51.244;5.724;2023-11-19T00:46:16;1.47;;;1.10;;
68921;SDS011;55959;51.244;5.724;2023-11-19T00:48:42;1.30;;;1.10;;
68921;SDS011;55959;51.244;5.724;2023-11-19T00:51:07;1.57;;;1.30;;
68921;SDS011;55959;51.244;5.724;2023-11-19T00:53:33;1.43;;;1.33;;
68921;SDS011;55959;51.244;5.724;2023-11-19T00:55:59;1.53;;;1.30;;
68921;SDS011;55959;51.244;5.724;2023-11-19T00:58:25;1.40;;;1.20;;
68921;SDS011;55959;51.244;5.724;2023-11-19T01:00:52;1.43;;;1.33;;
68921;SDS011;55959;51.244;5.724;2023-11-19T01:03:18;2.40;;;1.40;;
68921;SDS011;55959;51.244;5.724;2023-11-19T01:05:43;1.33;;;0.90;;
68921;SDS011;55959;51.244;5.724;2023-11-19T01:08:11;1.67;;;1.23;;
68921;SDS011;55959;51.244;5.724;2023-11-19T01:10:37;2.93;;;1.17;;
68921;SDS011;55959;51.244;5.724;2023-11-19T01:13:03;1.97;;;1.20;;
68921;SDS011;55959;51.244;5.724;2023-11-19T01:15:31;1.63;;;0.90;;
68921;SDS011;55959;51.244;5.724;2023-11-19T01:17:58;2.60;;;1.20;;
68921;SDS011;55959;51.244;5.724;2023-11-19T01:20:23;2.30;;;1.17;;
68921;SDS011;55959;51.244;5.724;2023-11-19T01:22:50;0.83;;;0.80;;
68921;SDS011;55959;51.244;5.724;2023-11-19T01:25:16;2.00;;;1.20;;
68921;SDS011;55959;51.244;5.724;2023-11-19T01:27:42;3.10;;;1.00;;
68921;SDS011;55959;51.244;5.724;2023-11-19T01:30:07;1.63;;;0.90;;
68921;SDS011;55959;51.244;5.724;2023-11-19T01:32:37;2.70;;;1.10;;
68921;SDS011;55959;51.244;5.724;2023-11-19T01:35:05;2.80;;;1.10;;
68921;SDS011;55959;51.244;5.724;2023-11-19T01:37:31;1.83;;;0.90;;
68921;SDS011;55959;51.244;5.724;2023-11-19T01:39:57;1.80;;;1.00;;
68921;SDS011;55959;51.244;5.724;2023-11-19T01:42:23;1.67;;;0.83;;
68921;SDS011;55959;51.244;5.724;2023-11-19T01:44:58;2.13;;;0.90;;
68921;SDS011;55959;51.244;5.724;2023-11-19T01:47:26;3.63;;;1.03;;
68921;SDS011;55959;51.244;5.724;2023-11-19T01:49:53;3.57;;;1.10;;
68921;SDS011;55959;51.244;5.724;2023-11-19T01:52:21;1.90;;;0.70;;
68921;SDS011;55959;51.244;5.724;2023-11-19T01:54:48;3.40;;;1.10;;
68921;SDS011;55959;51.244;5.724;2023-11-19T01:57:14;3.00;;;0.93;;
68921;SDS011;55959;51.244;5.724;2023-11-19T01:59:40;3.33;;;1.30;;
68921;SDS011;55959;51.244;5.724;2023-11-19T02:02:07;1.93;;;1.17;;
68921;SDS011;55959;51.244;5.724;2023-11-19T02:04:33;2.10;;;1.00;;
68921;SDS011;55959;51.244;5.724;2023-11-19T02:06:59;3.83;;;1.53;;
68921;SDS011;55959;51.244;5.724;2023-11-19T02:09:25;3.50;;;1.50;;
68921;SDS011;55959;51.244;5.724;2023-11-19T02:11:52;3.67;;;1.30;;
68921;SDS011;55959;51.244;5.724;2023-11-19T02:14:19;4.03;;;1.23;;
68921;SDS011;55959;51.244;5.724;2023-11-19T02:16:50;3.73;;;1.10;;
68921;SDS011;55959;51.244;5.724;2023-11-19T02:19:20;2.60;;;1.07;;
68921;SDS011;55959;51.244;5.724;2023-11-19T02:21:45;2.77;;;1.17;;
68921;SDS011;55959;51.244;5.724;2023-11-19T02:24:11;4.50;;;1.27;;
68921;SDS011;55959;51.244;5.724;2023-11-19T02:26:47;5.70;;;1.70;;
68921;SDS011;55959;51.244;5.724;2023-11-19T02:29:41;3.83;;;1.23;;
68921;SDS011;55959;51.244;5.724;2023-11-19T02:32:07;5.03;;;1.77;;
68921;SDS011;55959;51.244;5.724;2023-11-19T02:34:34;4.13;;;1.30;;
68921;SDS011;55959;51.244;5.724;2023-11-19T02:37:00;4.90;;;1.70;;
68921;SDS011;55959;51.244;5.724;2023-11-19T02:39:26;3.43;;;1.30;;
68921;SDS011;55959;51.244;5.724;2023-11-19T02:41:52;4.20;;;1.57;;
68921;SDS011;55959;51.244;5.724;2023-11-19T02:44:18;5.53;;;1.87;;
68921;SDS011;55959;51.244;5.724;2023-11-19T02:46:44;4.57;;;1.47;;
68921;SDS011;55959;51.244;5.724;2023-11-19T02:49:09;4.80;;;1.83;;
68921;SDS011;55959;51.244;5.724;2023-11-19T02:51:35;5.10;;;1.37;;
68921;SDS011;55959;51.244;5.724;2023-11-19T02:54:01;3.77;;;1.30;;
68921;SDS011;55959;51.244;5.724;2023-11-19T02:56:28;4.53;;;1.70;;
68921;SDS011;55959;51.244;5.724;2023-11-19T02:58:59;6.77;;;2.10;;
68921;SDS011;55959;51.244;5.724;2023-11-19T03:01:33;8.17;;;2.07;;
68921;SDS011;55959;51.244;5.724;2023-11-19T03:04:00;8.07;;;1.83;;
68921;SDS011;55959;51.244;5.724;2023-11-19T03:06:27;7.13;;;2.07;;
68921;SDS011;55959;51.244;5.724;2023-11-19T03:08:54;6.57;;;1.70;;
68921;SDS011;55959;51.244;5.724;2023-11-19T03:11:20;6.10;;;2.13;;
68921;SDS011;55959;51.244;5.724;2023-11-19T03:13:46;6.53;;;2.10;;
68921;SDS011;55959;51.244;5.724;2023-11-19T03:16:13;5.80;;;1.93;;
68921;SDS011;55959;51.244;5.724;2023-11-19T03:18:39;8.47;;;2.33;;
68921;SDS011;55959;51.244;5.724;2023-11-19T03:21:06;8.63;;;2.20;;
68921;SDS011;55959;51.244;5.724;2023-11-19T03:23:33;6.73;;;2.20;;
68921;SDS011;55959;51.244;5.724;2023-11-19T03:25:59;12.00;;;2.47;;
68921;SDS011;55959;51.244;5.724;2023-11-19T03:28:28;6.07;;;1.80;;
68921;SDS011;55959;51.244;5.724;2023-11-19T03:30:54;4.97;;;1.63;;
68921;SDS011;55959;51.244;5.724;2023-11-19T03:33:20;4.67;;;1.90;;
68921;SDS011;55959;51.244;5.724;2023-11-19T03:35:46;7.77;;;2.77;;
68921;SDS011;55959;51.244;5.724;2023-11-19T03:38:12;5.13;;;2.23;;
68921;SDS011;55959;51.244;5.724;2023-11-19T03:40:39;8.77;;;1.93;;
68921;SDS011;55959;51.244;5.724;2023-11-19T03:43:06;6.83;;;1.93;;
68921;SDS011;55959;51.244;5.724;2023-11-19T03:45:32;7.00;;;2.10;;
68921;SDS011;55959;51.244;5.724;2023-11-19T03:47:58;6.50;;;2.13;;
68921;SDS011;55959;51.244;5.724;2023-11-19T03:50:24;9.20;;;2.53;;
68921;SDS011;55959;51.244;5.724;2023-11-19T03:52:50;7.70;;;2.50;;
68921;SDS011;55959;51.244;5.724;2023-11-19T03:55:17;6.77;;;2.10;;
68921;SDS011;55959;51.244;5.724;2023-11-19T03:57:43;6.63;;;1.80;;
68921;SDS011;55959;51.244;5.724;2023-11-19T04:00:08;7.00;;;2.10;;
68921;SDS011;55959;51.244;5.724;2023-11-19T04:02:35;7.40;;;2.17;;
68921;SDS011;55959;51.244;5.724;2023-11-19T04:05:02;7.87;;;1.97;;
68921;SDS011;55959;51.244;5.724;2023-11-19T04:07:29;6.87;;;2.23;;
68921;SDS011;55959;51.244;5.724;2023-11-19T04:09:55;8.20;;;1.90;;
68921;SDS011;55959;51.244;5.724;2023-11-19T04:12:20;6.47;;;2.60;;
68921;SDS011;55959;51.244;5.724;2023-11-19T04:14:47;7.40;;;2.00;;
68921;SDS011;55959;51.244;5.724;2023-11-19T04:17:12;7.70;;;2.30;;
68921;SDS011;55959;51.244;5.724;2023-11-19T04:19:38;7.13;;;2.40;;
68921;SDS011;55959;51.244;5.724;2023-11-19T04:22:09;8.47;;;2.33;;
68921;SDS011;55959;51.244;5.724;2023-11-19T04:24:36;6.13;;;1.97;;
68921;SDS011;55959;51.244;5.724;2023-11-19T04:27:02;6.80;;;2.10;;
68921;SDS011;55959;51.244;5.724;2023-11-19T04:29:29;8.17;;;2.37;;
68921;SDS011;55959;51.244;5.724;2023-11-19T04:31:56;10.03;;;2.53;;
68921;SDS011;55959;51.244;5.724;2023-11-19T04:34:21;8.73;;;2.33;;
68921;SDS011;55959;51.244;5.724;2023-11-19T04:36:47;7.00;;;1.97;;
68921;SDS011;55959;51.244;5.724;2023-11-19T04:39:14;8.33;;;2.80;;
68921;SDS011;55959;51.244;5.724;2023-11-19T04:41:50;7.23;;;2.10;;
68921;SDS011;55959;51.244;5.724;2023-11-19T04:44:20;6.87;;;2.13;;
68921;SDS011;55959;51.244;5.724;2023-11-19T04:46:46;6.90;;;2.20;;
68921;SDS011;55959;51.244;5.724;2023-11-19T04:49:12;6.37;;;1.90;;
68921;SDS011;55959;51.244;5.724;2023-11-19T04:51:40;8.80;;;2.57;;
68921;SDS011;55959;51.244;5.724;2023-11-19T04:54:09;8.13;;;2.43;;
68921;SDS011;55959;51.244;5.724;2023-11-19T04:56:35;7.53;;;2.17;;
68921;SDS011;55959;51.244;5.724;2023-11-19T04:59:05;7.63;;;1.97;;
68921;SDS011;55959;51.244;5.724;2023-11-19T05:01:34;6.23;;;2.03;;
68921;SDS011;55959;51.244;5.724;2023-11-19T05:04:01;7.57;;;2.33;;
68921;SDS011;55959;51.244;5.724;2023-11-19T05:06:30;7.77;;;2.57;;
68921;SDS011;55959;51.244;5.724;2023-11-19T05:08:57;8.67;;;1.90;;
68921;SDS011;55959;51.244;5.724;2023-11-19T05:11:33;7.73;;;2.20;;
68921;SDS011;55959;51.244;5.724;2023-11-19T05:13:59;11.53;;;2.93;;
68921;SDS011;55959;51.244;5.724;2023-11-19T05:16:28;7.67;;;2.10;;
68921;SDS011;55959;51.244;5.724;2023-11-19T05:18:54;9.73;;;2.47;;
68921;SDS011;55959;51.244;5.724;2023-11-19T05:21:20;8.87;;;2.53;;
68921;SDS011;55959;51.244;5.724;2023-11-19T05:23:46;7.57;;;2.50;;
68921;SDS011;55959;51.244;5.724;2023-11-19T05:26:19;5.87;;;2.13;;
68921;SDS011;55959;51.244;5.724;2023-11-19T05:28:46;7.83;;;2.23;;
68921;SDS011;55959;51.244;5.724;2023-11-19T05:31:16;8.47;;;2.37;;
68921;SDS011;55959;51.244;5.724;2023-11-19T05:33:43;8.17;;;2.80;;
68921;SDS011;55959;51.244;5.724;2023-11-19T05:36:10;7.57;;;2.63;;
68921;SDS011;55959;51.244;5.724;2023-11-19T05:38:37;9.83;;;3.07;;
68921;SDS011;55959;51.244;5.724;2023-11-19T05:41:03;8.73;;;2.57;;
68921;SDS011;55959;51.244;5.724;2023-11-19T05:43:30;9.20;;;2.97;;
68921;SDS011;55959;51.244;5.724;2023-11-19T05:45:57;10.83;;;2.50;;
68921;SDS011;55959;51.244;5.724;2023-11-19T05:48:23;9.43;;;2.50;;
68921;SDS011;55959;51.244;5.724;2023-11-19T05:50:51;6.00;;;2.27;;
68921;SDS011;55959;51.244;5.724;2023-11-19T05:53:17;9.10;;;2.40;;
68921;SDS011;55959;51.244;5.724;2023-11-19T05:55:43;8.77;;;2.57;;
68921;SDS011;55959;51.244;5.724;2023-11-19T05:58:14;10.43;;;2.33;;
68921;SDS011;55959;51.244;5.724;2023-11-19T06:00:41;9.10;;;2.93;;
68921;SDS011;55959;51.244;5.724;2023-11-19T06:03:07;11.17;;;2.70;;
68921;SDS011;55959;51.244;5.724;2023-11-19T06:05:34;9.37;;;2.83;;
68921;SDS011;55959;51.244;5.724;2023-11-19T06:08:01;7.03;;;2.73;;
68921;SDS011;55959;51.244;5.724;2023-11-19T06:10:27;10.97;;;3.03;;
68921;SDS011;55959;51.244;5.724;2023-11-19T06:12:59;11.23;;;2.40;;
68921;SDS011;55959;51.244;5.724;2023-11-19T06:15:25;8.70;;;2.70;;
68921;SDS011;55959;51.244;5.724;2023-11-19T06:17:52;12.43;;;2.70;;
68921;SDS011;55959;51.244;5.724;2023-11-19T06:20:18;6.80;;;2.40;;
68921;SDS011;55959;51.244;5.724;2023-11-19T06:22:47;6.60;;;2.13;;
68921;SDS011;55959;51.244;5.724;2023-11-19T06:25:12;15.27;;;3.17;;
68921;SDS011;55959;51.244;5.724;2023-11-19T06:27:40;10.33;;;2.80;;
68921;SDS011;55959;51.244;5.724;2023-11-19T06:30:07;12.27;;;3.13;;
68921;SDS011;55959;51.244;5.724;2023-11-19T06:32:33;12.10;;;2.70;;
68921;SDS011;55959;51.244;5.724;2023-11-19T06:35:00;11.17;;;3.43;;
68921;SDS011;55959;51.244;5.724;2023-11-19T06:37:26;8.83;;;2.77;;
68921;SDS011;55959;51.244;5.724;2023-11-19T06:39:52;9.83;;;2.57;;
68921;SDS011;55959;51.244;5.724;2023-11-19T06:42:18;12.53;;;4.00;;
68921;SDS011;55959;51.244;5.724;2023-11-19T06:44:43;9.90;;;2.67;;
68921;SDS011;55959;51.244;5.724;2023-11-19T06:47:09;7.73;;;2.60;;
68921;SDS011;55959;51.244;5.724;2023-11-19T06:49:35;9.67;;;2.77;;
68921;SDS011;55959;51.244;5.724;2023-11-19T06:52:01;9.37;;;3.07;;
68921;SDS011;55959;51.244;5.724;2023-11-19T06:54:26;8.20;;;2.33;;
68921;SDS011;55959;51.244;5.724;2023-11-19T06:56:52;10.07;;;3.53;;
68921;SDS011;55959;51.244;5.724;2023-11-19T06:59:18;10.47;;;2.80;;
68921;SDS011;55959;51.244;5.724;2023-11-19T07:01:44;9.33;;;3.07;;
68921;SDS011;55959;51.244;5.724;2023-11-19T07:04:12;12.20;;;2.40;;
68921;SDS011;55959;51.244;5.724;2023-11-19T07:06:38;8.23;;;2.63;;
68921;SDS011;55959;51.244;5.724;2023-11-19T07:09:06;8.63;;;2.20;;
68921;SDS011;55959;51.244;5.724;2023-11-19T07:11:38;8.83;;;3.07;;
68921;SDS011;55959;51.244;5.724;2023-11-19T07:14:05;10.90;;;3.00;;
68921;SDS011;55959;51.244;5.724;2023-11-19T07:16:32;11.47;;;2.93;;
68921;SDS011;55959;51.244;5.724;2023-11-19T07:18:59;9.47;;;3.07;;
68921;SDS011;55959;51.244;5.724;2023-11-19T07:21:27;9.20;;;2.27;;
68921;SDS011;55959;51.244;5.724;2023-11-19T07:23:53;7.57;;;2.60;;
68921;SDS011;55959;51.244;5.724;2023-11-19T07:26:20;10.43;;;3.23;;
68921;SDS011;55959;51.244;5.724;2023-11-19T07:28:46;12.63;;;3.23;;
68921;SDS011;55959;51.244;5.724;2023-11-19T07:31:13;8.70;;;2.60;;
68921;SDS011;55959;51.244;5.724;2023-11-19T07:33:42;9.10;;;2.83;;
68921;SDS011;55959;51.244;5.724;2023-11-19T07:36:08;9.30;;;2.57;;
68921;SDS011;55959;51.244;5.724;2023-11-19T07:38:35;12.17;;;2.83;;
68921;SDS011;55959;51.244;5.724;2023-11-19T07:41:01;13.63;;;3.40;;
68921;SDS011;55959;51.244;5.724;2023-11-19T07:43:26;7.73;;;2.47;;
68921;SDS011;55959;51.244;5.724;2023-11-19T07:45:52;8.70;;;2.40;;
68921;SDS011;55959;51.244;5.724;2023-11-19T07:48:18;8.87;;;2.77;;
68921;SDS011;55959;51.244;5.724;2023-11-19T07:50:51;11.00;;;3.17;;
68921;SDS011;55959;51.244;5.724;2023-11-19T07:53:18;12.23;;;2.67;;
68921;SDS011;55959;51.244;5.724;2023-11-19T07:55:45;13.10;;;2.90;;
68921;SDS011;55959;51.244;5.724;2023-11-19T07:58:11;9.50;;;2.70;;
68921;SDS011;55959;51.244;5.724;2023-11-19T08:00:37;8.80;;;2.40;;
68921;SDS011;55959;51.244;5.724;2023-11-19T08:03:03;9.13;;;2.70;;
68921;SDS011;55959;51.244;5.724;2023-11-19T08:05:30;9.23;;;2.90;;
68921;SDS011;55959;51.244;5.724;2023-11-19T08:07:56;8.40;;;2.33;;
68921;SDS011;55959;51.244;5.724;2023-11-19T08:10:23;9.93;;;3.20;;
68921;SDS011;55959;51.244;5.724;2023-11-19T08:12:49;7.40;;;2.97;;
68921;SDS011;55959;51.244;5.724;2023-11-19T08:15:15;8.20;;;2.93;;
68921;SDS011;55959;51.244;5.724;2023-11-19T08:17:41;11.17;;;2.40;;
68921;SDS011;55959;51.244;5.724;2023-11-19T08:20:10;9.77;;;2.70;;
68921;SDS011;55959;51.244;5.724;2023-11-19T08:22:36;9.07;;;2.57;;
68921;SDS011;55959;51.244;5.724;2023-11-19T08:25:03;13.63;;;2.87;;
68921;SDS011;55959;51.244;5.724;2023-11-19T08:27:31;8.27;;;2.93;;
68921;SDS011;55959;51.244;5.724;2023-11-19T08:29:57;9.67;;;3.10;;
68921;SDS011;55959;51.244;5.724;2023-11-19T08:32:26;12.03;;;3.00;;
68921;SDS011;55959;51.244;5.724;2023-11-19T08:34:52;7.47;;;2.67;;
68921;SDS011;55959;51.244;5.724;2023-11-19T08:37:19;10.23;;;2.90;;
68921;SDS011;55959;51.244;5.724;2023-11-19T08:39:46;8.53;;;2.13;;
68921;SDS011;55959;51.244;5.724;2023-11-19T08:42:13;8.57;;;2.80;;
68921;SDS011;55959;51.244;5.724;2023-11-19T08:44:39;11.83;;;3.00;;
68921;SDS011;55959;51.244;5.724;2023-11-19T08:47:08;11.23;;;3.20;;
68921;SDS011;55959;51.244;5.724;2023-11-19T08:49:34;10.83;;;2.83;;
68921;SDS011;55959;51.244;5.724;2023-11-19T08:52:00;12.10;;;2.63;;
68921;SDS011;55959;51.244;5.724;2023-11-19T08:54:26;10.93;;;2.60;;
68921;SDS011;55959;51.244;5.724;2023-11-19T08:56:52;11.23;;;2.73;;
68921;SDS011;55959;51.244;5.724;2023-11-19T08:59:18;7.57;;;2.33;;
68921;SDS011;55959;51.244;5.724;2023-11-19T09:01:44;12.40;;;3.00;;
68921;SDS011;55959;51.244;5.724;2023-11-19T09:04:10;8.87;;;2.73;;
68921;SDS011;55959;51.244;5.724;2023-11-19T09:06:36;8.97;;;2.50;;
68921;SDS011;55959;51.244;5.724;2023-11-19T09:09:02;7.33;;;2.67;;
68921;SDS011;55959;51.244;5.724;2023-11-19T09:11:30;9.67;;;2.80;;
68921;SDS011;55959;51.244;5.724;2023-11-19T09:13:56;10.90;;;3.13;;
68921;SDS011;55959;51.244;5.724;2023-11-19T09:16:22;12.77;;;2.97;;
68921;SDS011;55959;51.244;5.724;2023-11-19T09:18:49;12.53;;;3.07;;
68921;SDS011;55959;51.244;5.724;2023-11-19T09:21:15;7.03;;;2.40;;
68921;SDS011;55959;51.244;5.724;2023-11-19T09:23:41;8.40;;;2.70;;
68921;SDS011;55959;51.244;5.724;2023-11-19T09:26:06;10.63;;;3.50;;
68921;SDS011;55959;51.244;5.724;2023-11-19T09:28:36;10.90;;;3.30;;
68921;SDS011;55959;51.244;5.724;2023-11-19T09:31:02;12.30;;;2.50;;
68921;SDS011;55959;51.244;5.724;2023-11-19T09:33:30;11.50;;;2.80;;
68921;SDS011;55959;51.244;5.724;2023-11-19T09:35:55;12.10;;;3.43;;
68921;SDS011;55959;51.244;5.724;2023-11-19T09:38:22;13.97;;;3.77;;
68921;SDS011;55959;51.244;5.724;2023-11-19T09:40:48;11.27;;;3.20;;
68921;SDS011;55959;51.244;5.724;2023-11-19T09:43:17;10.87;;;3.07;;
68921;SDS011;55959;51.244;5.724;2023-11-19T09:45:49;9.27;;;2.77;;
68921;SDS011;55959;51.244;5.724;2023-11-19T09:48:19;9.57;;;3.47;;
68921;SDS011;55959;51.244;5.724;2023-11-19T09:50:46;9.97;;;2.60;;
68921;SDS011;55959;51.244;5.724;2023-11-19T09:53:13;10.23;;;3.13;;
68921;SDS011;55959;51.244;5.724;2023-11-19T09:55:45;10.40;;;3.43;;
68921;SDS011;55959;51.244;5.724;2023-11-19T09:58:12;8.63;;;2.87;;
68921;SDS011;55959;51.244;5.724;2023-11-19T10:00:40;9.03;;;2.33;;
68921;SDS011;55959;51.244;5.724;2023-11-19T10:03:07;10.17;;;2.93;;
68921;SDS011;55959;51.244;5.724;2023-11-19T10:05:36;11.90;;;3.37;;
68921;SDS011;55959;51.244;5.724;2023-11-19T10:08:03;8.33;;;2.43;;
68921;SDS011;55959;51.244;5.724;2023-11-19T10:10:30;9.83;;;3.30;;
68921;SDS011;55959;51.244;5.724;2023-11-19T10:12:56;8.70;;;2.70;;
68921;SDS011;55959;51.244;5.724;2023-11-19T10:15:23;7.50;;;2.50;;
68921;SDS011;55959;51.244;5.724;2023-11-19T10:17:51;10.10;;;2.83;;
68921;SDS011;55959;51.244;5.724;2023-11-19T10:20:22;8.60;;;3.07;;
68921;SDS011;55959;51.244;5.724;2023-11-19T10:22:48;7.90;;;2.37;;
68921;SDS011;55959;51.244;5.724;2023-11-19T10:25:24;9.03;;;2.20;;
68921;SDS011;55959;51.244;5.724;2023-11-19T10:27:52;8.07;;;2.67;;
68921;SDS011;55959;51.244;5.724;2023-11-19T10:30:22;7.57;;;2.73;;
68921;SDS011;55959;51.244;5.724;2023-11-19T10:35:55;10.60;;;2.53;;
68921;SDS011;55959;51.244;5.724;2023-11-19T10:38:23;7.57;;;2.67;;
68921;SDS011;55959;51.244;5.724;2023-11-19T10:40:50;7.53;;;2.23;;
68921;SDS011;55959;51.244;5.724;2023-11-19T10:43:17;8.70;;;2.53;;
68921;SDS011;55959;51.244;5.724;2023-11-19T10:45:43;8.97;;;2.77;;
68921;SDS011;55959;51.244;5.724;2023-11-19T10:48:09;8.03;;;2.40;;
68921;SDS011;55959;51.244;5.724;2023-11-19T10:50:35;8.73;;;2.57;;
68921;SDS011;55959;51.244;5.724;2023-11-19T10:53:03;9.13;;;2.27;;
68921;SDS011;55959;51.244;5.724;2023-11-19T10:55:33;10.97;;;3.07;;
68921;SDS011;55959;51.244;5.724;2023-11-19T10:58:09;6.03;;;2.30;;
68921;SDS011;55959;51.244;5.724;2023-11-19T11:00:39;8.37;;;2.00;;
68921;SDS011;55959;51.244;5.724;2023-11-19T11:03:19;10.40;;;2.73;;
68921;SDS011;55959;51.244;5.724;2023-11-19T11:05:48;13.87;;;3.17;;
68921;SDS011;55959;51.244;5.724;2023-11-19T11:08:16;7.67;;;2.37;;
68921;SDS011;55959;51.244;5.724;2023-11-19T11:10:53;10.70;;;2.73;;
68921;SDS011;55959;51.244;5.724;2023-11-19T11:13:24;8.13;;;2.47;;
68921;SDS011;55959;51.244;5.724;2023-11-19T11:15:52;8.47;;;2.50;;
68921;SDS011;55959;51.244;5.724;2023-11-19T11:18:21;6.83;;;2.23;;
68921;SDS011;55959;51.244;5.724;2023-11-19T11:20:48;6.77;;;2.47;;
68921;SDS011;55959;51.244;5.724;2023-11-19T11:29:41;6.23;;;1.90;;
68921;SDS011;55959;51.244;5.724;2023-11-19T11:38:28;9.13;;;2.17;;
68921;SDS011;55959;51.244;5.724;2023-11-19T11:49:06;10.27;;;2.70;;
68921;SDS011;55959;51.244;5.724;2023-11-19T11:52:06;7.77;;;2.37;;
68921;SDS011;55959;51.244;5.724;2023-11-19T11:54:27;7.77;;;2.40;;
68921;SDS011;55959;51.244;5.724;2023-11-19T11:57:02;8.33;;;2.50;;
68921;SDS011;55959;51.244;5.724;2023-11-19T12:02:10;7.00;;;2.40;;
68921;SDS011;55959;51.244;5.724;2023-11-19T12:04:41;7.30;;;2.37;;
68921;SDS011;55959;51.244;5.724;2023-11-19T12:07:12;6.90;;;2.00;;
68921;SDS011;55959;51.244;5.724;2023-11-19T12:09:41;7.17;;;1.73;;
68921;SDS011;55959;51.244;5.724;2023-11-19T12:15:25;9.17;;;2.10;;
68921;SDS011;55959;51.244;5.724;2023-11-19T12:20:17;6.13;;;2.13;;
68921;SDS011;55959;51.244;5.724;2023-11-19T12:22:46;8.07;;;2.53;;
68921;SDS011;55959;51.244;5.724;2023-11-19T12:25:14;7.67;;;2.40;;
68921;SDS011;55959;51.244;5.724;2023-11-19T12:27:51;9.23;;;2.73;;
68921;SDS011;55959;51.244;5.724;2023-11-19T12:30:22;7.57;;;2.77;;
68921;SDS011;55959;51.244;5.724;2023-11-19T12:32:54;7.90;;;2.20;;
68921;SDS011;55959;51.244;5.724;2023-11-19T12:35:19;8.40;;;2.43;;
68921;SDS011;55959;51.244;5.724;2023-11-19T12:37:46;9.33;;;2.47;;
68921;SDS011;55959;51.244;5.724;2023-11-19T12:40:20;8.87;;;2.80;;
68921;SDS011;55959;51.244;5.724;2023-11-19T12:42:51;7.70;;;2.07;;
68921;SDS011;55959;51.244;5.724;2023-11-19T12:45:18;6.17;;;2.20;;
68921;SDS011;55959;51.244;5.724;2023-11-19T12:47:46;6.17;;;2.30;;
68921;SDS011;55959;51.244;5.724;2023-11-19T12:50:13;8.07;;;2.47;;
68921;SDS011;55959;51.244;5.724;2023-11-19T12:52:39;6.97;;;2.80;;
68921;SDS011;55959;51.244;5.724;2023-11-19T12:55:05;6.80;;;2.07;;
68921;SDS011;55959;51.244;5.724;2023-11-19T12:57:54;9.07;;;2.70;;
68921;SDS011;55959;51.244;5.724;2023-11-19T13:00:21;6.53;;;2.13;;
68921;SDS011;55959;51.244;5.724;2023-11-19T13:02:50;8.87;;;2.43;;
68921;SDS011;55959;51.244;5.724;2023-11-19T13:10:49;6.50;;;1.90;;
68921;SDS011;55959;51.244;5.724;2023-11-19T13:13:19;7.00;;;2.13;;
68921;SDS011;55959;51.244;5.724;2023-11-19T13:15:46;9.63;;;2.23;;
68921;SDS011;55959;51.244;5.724;2023-11-19T13:18:12;7.13;;;2.50;;
68921;SDS011;55959;51.244;5.724;2023-11-19T13:20:39;8.57;;;2.30;;
68921;SDS011;55959;51.244;5.724;2023-11-19T13:23:05;7.20;;;2.50;;
68921;SDS011;55959;51.244;5.724;2023-11-19T13:25:35;6.50;;;2.33;;
68921;SDS011;55959;51.244;5.724;2023-11-19T13:28:01;9.83;;;2.93;;
68921;SDS011;55959;51.244;5.724;2023-11-19T13:30:27;5.40;;;2.07;;
68921;SDS011;55959;51.244;5.724;2023-11-19T13:32:54;6.50;;;2.30;;
68921;SDS011;55959;51.244;5.724;2023-11-19T13:35:20;10.53;;;2.83;;
68921;SDS011;55959;51.244;5.724;2023-11-19T13:37:47;6.77;;;2.27;;
68921;SDS011;55959;51.244;5.724;2023-11-19T13:40:13;8.57;;;2.20;;
68921;SDS011;55959;51.244;5.724;2023-11-19T13:42:40;7.93;;;2.47;;
68921;SDS011;55959;51.244;5.724;2023-11-19T13:45:11;7.10;;;2.20;;
68921;SDS011;55959;51.244;5.724;2023-11-19T13:47:38;7.90;;;2.20;;
68921;SDS011;55959;51.244;5.724;2023-11-19T13:50:09;8.50;;;2.20;;
68921;SDS011;55959;51.244;5.724;2023-11-19T13:52:37;8.73;;;2.37;;
68921;SDS011;55959;51.244;5.724;2023-11-19T13:55:05;7.97;;;2.77;;
68921;SDS011;55959;51.244;5.724;2023-11-19T13:57:33;9.33;;;2.77;;
68921;SDS011;55959;51.244;5.724;2023-11-19T14:00:00;9.43;;;2.33;;
68921;SDS011;55959;51.244;5.724;2023-11-19T14:02:31;7.67;;;2.13;;
68921;SDS011;55959;51.244;5.724;2023-11-19T14:04:58;10.87;;;2.90;;
68921;SDS011;55959;51.244;5.724;2023-11-19T14:07:24;8.97;;;2.63;;
68921;SDS011;55959;51.244;5.724;2023-11-19T14:09:50;4.80;;;2.00;;
68921;SDS011;55959;51.244;5.724;2023-11-19T14:12:16;7.33;;;2.10;;
68921;SDS011;55959;51.244;5.724;2023-11-19T14:14:42;8.60;;;2.30;;
68921;SDS011;55959;51.244;5.724;2023-11-19T14:17:08;7.33;;;2.27;;
68921;SDS011;55959;51.244;5.724;2023-11-19T14:19:36;9.77;;;2.20;;
68921;SDS011;55959;51.244;5.724;2023-11-19T14:22:03;8.67;;;2.67;;
68921;SDS011;55959;51.244;5.724;2023-11-19T14:24:29;6.77;;;2.20;;
68921;SDS011;55959;51.244;5.724;2023-11-19T14:26:54;6.40;;;2.73;;
68921;SDS011;55959;51.244;5.724;2023-11-19T14:29:23;6.87;;;2.07;;
68921;SDS011;55959;51.244;5.724;2023-11-19T14:31:51;8.10;;;2.10;;
68921;SDS011;55959;51.244;5.724;2023-11-19T14:34:19;9.67;;;2.47;;
68921;SDS011;55959;51.244;5.724;2023-11-19T14:36:45;8.47;;;2.03;;
68921;SDS011;55959;51.244;5.724;2023-11-19T14:39:11;7.13;;;2.20;;
68921;SDS011;55959;51.244;5.724;2023-11-19T14:41:37;6.90;;;1.90;;
68921;SDS011;55959;51.244;5.724;2023-11-19T14:44:03;8.47;;;2.20;;
68921;SDS011;55959;51.244;5.724;2023-11-19T14:46:30;6.30;;;1.87;;
68921;SDS011;55959;51.244;5.724;2023-11-19T14:48:56;6.83;;;2.10;;
68921;SDS011;55959;51.244;5.724;2023-11-19T14:51:22;7.83;;;2.30;;
68921;SDS011;55959;51.244;5.724;2023-11-19T14:53:48;8.67;;;2.70;;
68921;SDS011;55959;51.244;5.724;2023-11-19T14:56:14;6.77;;;2.17;;
68921;SDS011;55959;51.244;5.724;2023-11-19T14:58:40;7.20;;;2.47;;
68921;SDS011;55959;51.244;5.724;2023-11-19T15:01:05;7.33;;;2.43;;
68921;SDS011;55959;51.244;5.724;2023-11-19T15:03:32;7.43;;;1.90;;
68921;SDS011;55959;51.244;5.724;2023-11-19T15:05:58;9.07;;;2.67;;
68921;SDS011;55959;51.244;5.724;2023-11-19T15:08:24;6.57;;;2.13;;
68921;SDS011;55959;51.244;5.724;2023-11-19T15:10:50;7.43;;;2.63;;
68921;SDS011;55959;51.244;5.724;2023-11-19T15:13:16;5.70;;;2.23;;
68921;SDS011;55959;51.244;5.724;2023-11-19T15:15:41;8.43;;;2.57;;
68921;SDS011;55959;51.244;5.724;2023-11-19T15:18:07;5.57;;;2.07;;
68921;SDS011;55959;51.244;5.724;2023-11-19T15:20:35;7.33;;;2.73;;
68921;SDS011;55959;51.244;5.724;2023-11-19T15:23:01;7.17;;;2.50;;
68921;SDS011;55959;51.244;5.724;2023-11-19T15:25:27;8.97;;;2.30;;